Time;durP1;ratioP1;P1;durP2;ratioP2;P2;SDS_P1;SDS_P2;PMS_P1;PMS_P2;Temp;Humidity;BMP_temperature;BMP_pressure;BME280_temperature;BME280_humidity;BME280_pressure;Samples;Min_cycle;Max_cycle;Signal;HPM_P1;HPM_P2
2023/06/11 00:00:09;;;;;;;9.10;7.87;;;;;;;17.85;47.86;101428.56;4853923;29;20598;-69
2023/06/11 00:02:41;;;;;;;8.97;5.50;;;;;;;17.86;48.09;101429.41;4871055;29;20415;-69
2023/06/11 00:05:11;;;;;;;7.03;4.73;;;;;;;17.75;48.49;101442.00;4863377;29;20462;-69
2023/06/11 00:07:41;;;;;;;6.20;5.60;;;;;;;17.64;49.22;101438.19;4862518;29;20500;-69
2023/06/11 00:10:10;;;;;;;4.33;3.73;;;;;;;17.62;49.88;101434.84;4852503;29;20865;-69
2023/06/11 00:12:39;;;;;;;7.40;4.20;;;;;;;17.50;49.28;101430.38;4860722;29;20447;-69
2023/06/11 00:15:09;;;;;;;5.37;4.13;;;;;;;17.54;49.18;101437.91;4856965;29;20421;-69
2023/06/11 00:17:39;;;;;;;6.37;4.60;;;;;;;17.36;49.52;101435.25;4860982;29;20446;-69
2023/06/11 00:20:12;;;;;;;5.60;4.43;;;;;;;17.34;49.74;101434.63;4856529;29;21025;-70
2023/06/11 00:22:43;;;;;;;6.13;3.97;;;;;;;17.31;50.24;101435.94;4863056;29;20931;-69
2023/06/11 00:25:12;;;;;;;5.97;4.97;;;;;;;17.41;49.58;101440.84;4860305;29;20449;-68
2023/06/11 00:27:42;;;;;;;6.30;5.50;;;;;;;17.23;50.35;101424.50;4869084;29;20450;-69
2023/06/11 00:30:12;;;;;;;7.03;5.47;;;;;;;17.21;50.88;101429.38;4862008;29;20415;-69
2023/06/11 00:32:41;;;;;;;5.83;4.50;;;;;;;17.12;50.52;101428.03;4862231;29;20443;-69
2023/06/11 00:35:10;;;;;;;9.30;5.80;;;;;;;17.14;50.50;101431.34;4865769;29;20479;-69
2023/06/11 00:37:42;;;;;;;11.80;5.20;;;;;;;17.16;50.08;101432.78;4866225;29;20402;-69
2023/06/11 00:40:11;;;;;;;6.80;5.10;;;;;;;17.16;50.16;101438.28;4870317;29;20453;-69
2023/06/11 00:42:40;;;;;;;7.50;5.03;;;;;;;17.13;50.12;101436.00;4877448;29;20415;-69
2023/06/11 00:45:11;;;;;;;6.57;4.20;;;;;;;17.06;50.22;101434.41;4854944;29;20431;-68
2023/06/11 00:47:40;;;;;;;6.40;4.03;;;;;;;17.11;49.96;101434.56;4861852;29;20447;-69
2023/06/11 00:50:12;;;;;;;5.67;4.30;;;;;;;17.14;49.97;101431.34;4861937;29;20844;-69
2023/06/11 00:52:43;;;;;;;4.87;4.17;;;;;;;17.11;50.13;101431.81;4861815;29;20437;-69
2023/06/11 00:55:12;;;;;;;6.43;4.50;;;;;;;17.15;50.50;101433.84;4869103;29;20717;-69
2023/06/11 00:57:41;;;;;;;7.03;3.97;;;;;;;17.07;50.27;101436.09;4869141;29;20455;-70
2023/06/11 01:00:13;;;;;;;5.77;4.00;;;;;;;17.02;50.50;101438.69;4860949;29;20432;-69
2023/06/11 01:02:49;;;;;;;8.23;4.30;;;;;;;16.93;50.53;101441.75;4860058;29;20785;-69
2023/06/11 01:05:22;;;;;;;8.07;3.90;;;;;;;16.94;51.70;101432.47;4854497;29;20529;-69
2023/06/11 01:07:55;;;;;;;5.33;3.60;;;;;;;16.78;50.91;101438.59;4859751;29;20448;-70
2023/06/11 01:10:33;;;;;;;5.50;4.23;;;;;;;16.83;51.90;101437.91;4859476;29;20454;-68
2023/06/11 01:13:03;;;;;;;9.10;4.80;;;;;;;16.71;51.69;101436.97;4865136;29;20789;-68
2023/06/11 01:15:32;;;;;;;8.43;4.20;;;;;;;16.63;52.70;101440.03;4866011;29;20437;-68
2023/06/11 01:18:12;;;;;;;6.07;3.60;;;;;;;16.44;52.68;101448.22;4858615;29;20507;-69
2023/06/11 01:20:49;;;;;;;7.30;4.30;;;;;;;16.41;53.03;101445.91;4857356;29;20829;-68
2023/06/11 01:23:41;;;;;;;6.07;4.20;;;;;;;16.35;54.02;101444.13;4852557;29;20458;-69
2023/06/11 01:26:25;;;;;;;4.60;3.93;;;;;;;16.26;54.35;101444.63;4858678;29;20475;-69
2023/06/11 01:28:58;;;;;;;7.80;3.97;;;;;;;16.28;54.26;101453.41;4865109;29;20476;-68
2023/06/11 01:31:32;;;;;;;5.80;3.63;;;;;;;16.25;54.39;101454.72;4861269;29;20507;-69
2023/06/11 01:34:03;;;;;;;4.50;3.67;;;;;;;16.27;53.80;101454.47;4860834;29;20439;-68
2023/06/11 01:36:36;;;;;;;6.97;5.30;;;;;;;16.16;54.12;101457.97;4866443;29;20479;-68
2023/06/11 01:39:08;;;;;;;4.47;3.30;;;;;;;16.04;54.71;101458.69;4862948;29;20960;-68
2023/06/11 01:41:58;;;;;;;4.30;3.63;;;;;;;16.01;54.54;101461.06;4870201;29;20433;-69
2023/06/11 01:44:29;;;;;;;4.03;3.63;;;;;;;15.88;54.98;101459.25;4863566;29;20476;-69
2023/06/11 01:46:58;;;;;;;4.90;4.40;;;;;;;15.87;55.15;101463.06;4862754;29;20471;-69
2023/06/11 01:49:28;;;;;;;6.93;4.50;;;;;;;15.76;55.82;101455.59;4862507;29;20825;-69
2023/06/11 01:51:57;;;;;;;5.50;4.67;;;;;;;15.71;55.90;101452.72;4859643;29;20530;-68
2023/06/11 01:54:26;;;;;;;8.33;4.47;;;;;;;15.63;56.24;101453.84;4862712;29;20501;-69
2023/06/11 01:56:55;;;;;;;4.53;4.13;;;;;;;15.75;56.20;101456.66;4868346;29;20447;-69
2023/06/11 01:59:25;;;;;;;6.50;4.27;;;;;;;15.67;56.74;101453.38;4861462;29;20419;-69
2023/06/11 02:01:56;;;;;;;4.30;3.60;;;;;;;15.50;57.08;101455.75;4868750;29;20434;-70
2023/06/11 02:04:25;;;;;;;8.13;4.30;;;;;;;15.48;57.00;101458.72;4861626;29;20481;-69
2023/06/11 02:06:54;;;;;;;7.47;3.77;;;;;;;15.46;57.42;101465.44;4860977;29;20448;-68
2023/06/11 02:09:23;;;;;;;5.27;4.53;;;;;;;15.67;58.00;101451.47;4866353;29;20839;-68
2023/06/11 02:11:52;;;;;;;4.43;3.73;;;;;;;15.51;57.23;101454.75;4873117;29;20510;-69
2023/06/11 02:14:22;;;;;;;4.67;4.07;;;;;;;15.48;57.58;101457.91;4863046;29;20414;-67
2023/06/11 02:16:51;;;;;;;4.70;3.40;;;;;;;15.56;57.29;101463.94;4873157;29;20468;-68
2023/06/11 02:19:21;;;;;;;6.50;3.70;;;;;;;15.52;57.50;101465.44;4861646;29;20500;-69
2023/06/11 02:21:51;;;;;;;10.00;4.13;;;;;;;15.38;57.97;101463.00;4862425;29;20420;-69
2023/06/11 02:24:20;;;;;;;4.37;3.80;;;;;;;15.28;58.53;101466.22;4861227;29;20445;-69
2023/06/11 02:26:49;;;;;;;8.47;5.40;;;;;;;15.31;58.80;101467.63;4862392;29;20496;-69
2023/06/11 02:29:18;;;;;;;9.03;3.80;;;;;;;15.18;59.04;101463.13;4862808;29;20963;-69
2023/06/11 02:31:47;;;;;;;4.50;3.77;;;;;;;15.16;59.41;101470.66;4861320;29;20431;-69
2023/06/11 02:34:16;;;;;;;9.10;4.27;;;;;;;15.09;59.21;101470.72;4859319;29;20426;-69
2023/06/11 02:36:47;;;;;;;5.10;3.93;;;;;;;14.94;60.01;101472.88;4865434;29;20439;-69
2023/06/11 02:39:16;;;;;;;4.53;4.00;;;;;;;14.92;60.13;101474.97;4858970;29;20971;-69
2023/06/11 02:41:45;;;;;;;5.20;3.87;;;;;;;15.10;60.57;101464.19;4860694;29;20431;-69
2023/06/11 02:44:14;;;;;;;9.37;7.50;;;;;;;14.99;60.02;101464.91;4862410;29;20441;-69
2023/06/11 02:46:43;;;;;;;11.57;6.73;;;;;;;14.95;60.01;101469.13;4864730;29;20471;-69
2023/06/11 02:49:12;;;;;;;8.20;7.03;;;;;;;14.97;59.77;101469.72;4860097;29;20808;-68
2023/06/11 02:51:41;;;;;;;4.97;3.20;;;;;;;14.96;60.03;101470.75;4867622;29;20494;-69
2023/06/11 02:54:11;;;;;;;4.83;3.90;;;;;;;14.88;60.41;101470.19;4861912;29;20410;-69
2023/06/11 02:56:40;;;;;;;3.80;3.30;;;;;;;15.07;60.24;101471.97;4860669;29;20453;-69
2023/06/11 02:59:09;;;;;;;5.70;3.97;;;;;;;14.90;59.92;101477.09;4863453;29;20433;-69
2023/06/11 03:01:39;;;;;;;6.30;3.63;;;;;;;14.97;59.72;101477.91;4860150;29;20432;-69
2023/06/11 03:04:09;;;;;;;3.30;2.83;;;;;;;14.90;59.75;101482.56;4863272;29;20448;-69
2023/06/11 03:06:38;;;;;;;5.63;4.43;;;;;;;14.86;60.05;101481.31;4861670;29;20888;-69
2023/06/11 03:09:08;;;;;;;5.90;3.90;;;;;;;14.92;59.75;101474.16;4870193;29;20978;-69
2023/06/11 03:11:39;;;;;;;6.00;3.77;;;;;;;14.95;59.34;101480.03;4862750;29;20460;-68
2023/06/11 03:14:08;;;;;;;6.07;5.30;;;;;;;14.85;60.03;101478.81;4861572;29;20411;-68
2023/06/11 03:16:37;;;;;;;5.57;4.00;;;;;;;14.95;60.38;101485.47;4868768;29;20973;-68
2023/06/11 03:19:06;;;;;;;6.83;4.20;;;;;;;15.02;59.61;101482.69;4870195;29;20439;-68
2023/06/11 03:21:35;;;;;;;6.47;4.20;;;;;;;15.06;59.44;101495.66;4864933;29;20455;-69
2023/06/11 03:24:17;;;;;;;5.90;3.90;;;;;;;15.33;60.12;101488.19;4860458;29;20980;-69
2023/06/11 03:26:48;;;;;;;4.10;2.90;;;;;;;15.41;58.42;101489.81;4860669;29;20446;-69
2023/06/11 03:29:17;;;;;;;5.53;3.60;;;;;;;15.33;58.80;101485.47;4864145;29;20447;-68
2023/06/11 03:31:52;;;;;;;4.83;3.43;;;;;;;15.42;58.50;101486.03;4866860;29;20509;-69
2023/06/11 03:34:23;;;;;;;9.77;5.87;;;;;;;15.35;58.71;101491.53;4871196;29;20465;-69
2023/06/11 03:36:53;;;;;;;7.03;4.30;;;;;;;15.79;57.46;101496.06;4869444;29;20527;-69
2023/06/11 03:39:23;;;;;;;5.67;3.47;;;;;;;16.80;54.79;101490.25;4870240;29;20424;-69
2023/06/11 03:41:57;;;;;;;4.13;3.73;;;;;;;18.19;50.84;101489.91;4864448;29;20432;-68
2023/06/11 03:44:28;;;;;;;9.27;4.10;;;;;;;19.02;48.30;101492.31;4866104;29;20440;-68
2023/06/11 03:46:57;;;;;;;7.27;4.10;;;;;;;19.65;46.60;101488.59;4860461;29;20489;-68
2023/06/11 03:49:26;;;;;;;10.13;3.80;;;;;;;20.34;45.14;101493.59;4867878;29;20449;-69
2023/06/11 03:51:56;;;;;;;6.20;4.43;;;;;;;20.89;43.81;101487.19;4868314;29;20455;-70
2023/06/11 03:54:25;;;;;;;9.90;3.77;;;;;;;20.89;43.34;101489.97;4859946;29;20455;-69
2023/06/11 03:56:57;;;;;;;4.57;3.60;;;;;;;21.25;43.00;101497.56;4856384;29;20504;-70
2023/06/11 03:59:25;;;;;;;4.80;4.30;;;;;;;21.64;41.69;101500.16;4851478;29;20622;-69
2023/06/11 04:01:54;;;;;;;5.33;4.80;;;;;;;21.31;41.93;101492.09;4860384;29;20455;-68
2023/06/11 04:04:24;;;;;;;7.67;4.33;;;;;;;21.21;41.96;101501.91;4867426;29;20422;-68
2023/06/11 04:06:53;;;;;;;6.30;4.10;;;;;;;21.23;42.28;101498.91;4874084;29;20491;-69
2023/06/11 04:09:23;;;;;;;5.07;3.83;;;;;;;20.86;42.56;101506.16;4876478;29;20445;-68
2023/06/11 04:11:52;;;;;;;5.80;4.00;;;;;;;20.75;42.48;101510.69;4878784;29;20419;-69
2023/06/11 04:14:23;;;;;;;5.40;3.80;;;;;;;21.71;41.05;101503.53;4869461;29;20419;-68
2023/06/11 04:16:52;;;;;;;11.30;3.80;;;;;;;21.74;40.82;101505.75;4869297;29;20524;-68
2023/06/11 04:19:21;;;;;;;10.70;3.97;;;;;;;21.75;40.52;101510.19;4869984;29;20415;-68
2023/06/11 04:21:50;;;;;;;5.13;3.90;;;;;;;22.13;39.75;101511.91;4869912;29;20965;-68
2023/06/11 04:24:19;;;;;;;6.30;4.17;;;;;;;22.64;39.19;101513.09;4869819;29;20440;-68
2023/06/11 04:26:48;;;;;;;3.63;3.30;;;;;;;22.69;38.69;101510.38;4870557;29;20447;-68
2023/06/11 04:29:18;;;;;;;4.37;3.70;;;;;;;22.71;38.86;101510.94;4886526;29;20500;-68
2023/06/11 04:31:50;;;;;;;10.33;3.80;;;;;;;22.49;38.95;101516.59;4871149;29;20906;-69
2023/06/11 04:34:28;;;;;;;8.20;4.30;;;;;;;22.92;38.22;101520.16;4870625;29;20475;-69
2023/06/11 04:37:01;;;;;;;5.23;4.40;;;;;;;23.09;38.05;101514.44;4869702;29;20847;-68
2023/06/11 04:39:30;;;;;;;5.90;3.90;;;;;;;22.60;38.71;101513.91;4870013;29;20993;-69
2023/06/11 04:42:02;;;;;;;4.27;3.80;;;;;;;22.39;39.31;101513.78;4868440;29;20426;-69
2023/06/11 04:44:31;;;;;;;4.90;3.73;;;;;;;23.11;38.22;101509.47;4868619;29;20827;-69
2023/06/11 04:47:05;;;;;;;11.07;3.40;;;;;;;23.62;37.44;101518.75;4860339;29;20880;-69
2023/06/11 04:49:37;;;;;;;6.20;3.07;;;;;;;23.41;37.21;101517.84;4871718;29;20450;-69
2023/06/11 04:52:08;;;;;;;5.30;3.20;;;;;;;22.57;37.97;101511.66;4872945;29;20478;-70
2023/06/11 04:54:41;;;;;;;7.70;3.87;;;;;;;21.89;39.43;101516.91;4871340;29;20497;-69
2023/06/11 04:57:10;;;;;;;7.57;3.77;;;;;;;22.03;39.55;101520.94;4878346;29;20434;-68
2023/06/11 04:59:39;;;;;;;3.30;3.00;;;;;;;22.49;39.03;101513.00;4869462;29;20449;-69
2023/06/11 05:02:10;;;;;;;6.70;3.93;;;;;;;22.47;38.82;101515.19;4877979;29;20507;-69
2023/06/11 05:04:39;;;;;;;3.40;2.83;;;;;;;22.36;38.88;101522.59;4872447;29;20503;-69
2023/06/11 05:07:08;;;;;;;7.87;3.60;;;;;;;22.00;39.82;101518.72;4873503;29;20439;-68
2023/06/11 05:09:39;;;;;;;9.10;3.90;;;;;;;22.34;39.00;101523.94;4874912;29;20518;-68
2023/06/11 05:12:12;;;;;;;3.90;3.20;;;;;;;22.33;39.27;101516.75;4871772;29;20442;-69
2023/06/11 05:14:44;;;;;;;3.93;3.30;;;;;;;22.81;39.84;101513.75;4881302;29;20448;-69
2023/06/11 05:17:15;;;;;;;5.03;3.83;;;;;;;23.66;36.90;101520.69;4863110;29;20796;-69
2023/06/11 05:19:47;;;;;;;4.80;3.83;;;;;;;23.07;37.84;101519.41;4873131;29;20447;-68
2023/06/11 05:22:17;;;;;;;3.57;3.27;;;;;;;22.75;38.78;101525.84;4870251;29;20553;-69
2023/06/11 05:24:47;;;;;;;6.87;4.20;;;;;;;22.14;39.55;101515.50;4870839;29;20448;-68
2023/06/11 05:27:16;;;;;;;3.73;2.90;;;;;;;22.68;39.08;101518.91;4871868;29;20470;-69
2023/06/11 05:29:46;;;;;;;5.80;4.30;;;;;;;23.35;37.82;101517.00;4871218;29;20470;-69
2023/06/11 05:32:17;;;;;;;4.10;3.57;;;;;;;24.51;35.97;101520.97;4864526;29;20438;-69
2023/06/11 05:34:49;;;;;;;4.53;3.60;;;;;;;24.44;36.20;101520.44;4863428;29;20457;-69
2023/06/11 05:37:21;;;;;;;5.63;3.73;;;;;;;22.43;39.36;101514.06;4862808;29;20479;-70
2023/06/11 05:39:50;;;;;;;4.23;3.40;;;;;;;20.44;43.36;101519.56;4861431;29;20426;-69
2023/06/11 05:42:20;;;;;;;10.47;4.30;;;;;;;19.21;46.38;101526.72;4866893;29;20462;-69
2023/06/11 05:44:50;;;;;;;8.33;4.07;;;;;;;18.65;47.88;101520.06;4868372;29;20781;-69
2023/06/11 05:47:20;;;;;;;5.40;4.30;;;;;;;18.65;48.22;101522.78;4860915;29;20460;-69
2023/06/11 05:49:51;;;;;;;3.97;3.17;;;;;;;18.40;48.87;101524.91;4856430;29;20458;-69
2023/06/11 05:52:20;;;;;;;11.30;3.60;;;;;;;18.59;48.89;101523.75;4862410;29;20705;-70
2023/06/11 05:54:49;;;;;;;5.33;3.87;;;;;;;18.67;48.70;101528.88;4859626;29;21020;-69
2023/06/11 05:57:20;;;;;;;6.00;3.80;;;;;;;18.78;48.89;101523.63;4863126;29;21071;-69
2023/06/11 05:59:50;;;;;;;3.90;3.33;;;;;;;18.87;48.41;101530.41;4865450;29;20952;-68
2023/06/11 06:02:21;;;;;;;5.70;3.67;;;;;;;19.16;48.11;101532.13;4871056;29;20944;-69
2023/06/11 06:04:51;;;;;;;6.93;3.00;;;;;;;18.88;47.97;101537.56;4877426;29;20469;-69
2023/06/11 06:07:20;;;;;;;8.50;3.67;;;;;;;18.89;48.00;101533.72;4865039;29;20464;-69
2023/06/11 06:09:52;;;;;;;4.43;3.50;;;;;;;18.84;48.71;101525.38;4865492;29;20449;-70
2023/06/11 06:12:21;;;;;;;3.97;3.40;;;;;;;18.77;48.25;101535.66;4868455;29;20441;-70
2023/06/11 06:14:50;;;;;;;4.93;3.67;;;;;;;18.66;48.90;101527.22;4867517;29;20455;-69
2023/06/11 06:17:21;;;;;;;4.33;3.60;;;;;;;18.84;48.76;101526.22;4865800;29;21008;-69
2023/06/11 06:19:50;;;;;;;5.83;3.97;;;;;;;19.17;48.22;101525.53;4873923;29;20418;-69
2023/06/11 06:22:19;;;;;;;6.27;4.30;;;;;;;19.13;47.97;101524.34;4875105;29;20538;-69
2023/06/11 06:24:48;;;;;;;4.00;2.90;;;;;;;19.23;47.59;101530.03;4866568;29;20490;-69
2023/06/11 06:27:17;;;;;;;7.77;3.87;;;;;;;19.25;47.89;101527.91;4863232;29;20464;-69
2023/06/11 06:29:47;;;;;;;4.60;3.50;;;;;;;19.27;47.60;101542.19;4868278;29;20480;-69
2023/06/11 06:32:16;;;;;;;4.63;3.70;;;;;;;19.34;47.28;101536.56;4866864;29;20459;-69
2023/06/11 06:34:46;;;;;;;6.13;4.20;;;;;;;19.38;47.75;101529.50;4868034;29;20435;-69
2023/06/11 06:37:15;;;;;;;6.77;4.07;;;;;;;19.50;47.73;101536.66;4877643;29;20470;-68
2023/06/11 06:39:46;;;;;;;6.87;4.60;;;;;;;19.73;47.10;101534.88;4861174;29;20444;-69
2023/06/11 06:42:15;;;;;;;7.67;3.97;;;;;;;19.75;46.76;101535.47;4855066;29;20516;-70
2023/06/11 06:44:48;;;;;;;9.10;3.57;;;;;;;19.51;47.61;101530.06;4872626;29;20661;-70
2023/06/11 06:47:17;;;;;;;8.13;3.23;;;;;;;19.46;47.71;101529.97;4864152;29;20523;-70
2023/06/11 06:49:48;;;;;;;8.20;4.07;;;;;;;19.50;47.82;101531.16;4865066;29;20442;-68
2023/06/11 06:52:17;;;;;;;5.87;4.40;;;;;;;19.64;47.47;101530.88;4853336;29;20465;-70
2023/06/11 06:54:47;;;;;;;5.27;4.00;;;;;;;19.90;47.44;101530.22;4861892;29;20440;-69
2023/06/11 06:57:17;;;;;;;14.90;4.50;;;;;;;19.94;47.41;101536.91;4869646;29;20938;-70
2023/06/11 06:59:46;;;;;;;10.90;4.30;;;;;;;20.05;47.21;101533.22;4855218;29;20439;-69
2023/06/11 07:02:16;;;;;;;4.23;3.83;;;;;;;20.28;46.58;101537.72;4856052;29;20482;-70
2023/06/11 07:04:48;;;;;;;4.53;3.70;;;;;;;20.67;46.04;101533.13;4867119;29;20926;-69
2023/06/11 07:07:18;;;;;;;4.70;3.97;;;;;;;20.64;45.99;101530.88;4861225;29;20434;-70
2023/06/11 07:09:47;;;;;;;5.20;4.17;;;;;;;20.75;46.37;101527.19;4865297;29;20466;-69
2023/06/11 07:12:16;;;;;;;5.97;4.53;;;;;;;20.89;45.71;101531.22;4860145;29;20452;-69
2023/06/11 07:14:45;;;;;;;5.13;3.00;;;;;;;20.90;45.81;101524.63;4857911;29;20524;-68
2023/06/11 07:17:14;;;;;;;6.50;3.37;;;;;;;20.94;46.28;101530.44;4861080;29;20437;-69
2023/06/11 07:19:43;;;;;;;7.93;4.53;;;;;;;20.88;45.87;101526.78;4860667;29;20535;-69
2023/06/11 07:22:15;;;;;;;7.70;4.20;;;;;;;20.87;45.53;101536.13;4870729;29;20447;-69
2023/06/11 07:24:47;;;;;;;6.07;4.30;;;;;;;20.83;45.85;101540.47;4860902;29;20495;-68
2023/06/11 07:27:18;;;;;;;6.20;4.53;;;;;;;21.00;44.99;101537.69;4863660;29;20484;-68
2023/06/11 07:29:48;;;;;;;7.87;4.10;;;;;;;21.33;44.39;101528.47;4859459;29;20923;-68
2023/06/11 07:32:17;;;;;;;6.57;3.80;;;;;;;21.67;44.14;101543.72;4856912;29;20546;-69
2023/06/11 07:34:47;;;;;;;9.03;4.20;;;;;;;21.43;44.16;101532.19;4856895;29;20460;-68
2023/06/11 07:37:18;;;;;;;4.83;4.30;;;;;;;21.51;44.23;101530.88;4857198;29;20824;-68
2023/06/11 07:39:47;;;;;;;5.27;4.30;;;;;;;21.52;44.55;101527.03;4856301;29;20406;-68
2023/06/11 07:42:17;;;;;;;4.40;3.90;;;;;;;21.74;44.68;101538.81;4851305;29;20424;-68
2023/06/11 07:44:46;;;;;;;7.00;4.30;;;;;;;21.91;43.43;101531.28;4860891;29;20441;-68
2023/06/11 07:47:15;;;;;;;5.57;4.37;;;;;;;22.13;43.99;101533.13;4861831;29;20552;-69
2023/06/11 07:49:44;;;;;;;8.57;4.80;;;;;;;22.05;43.80;101538.06;4862855;29;20932;-67
2023/06/11 07:52:13;;;;;;;5.47;4.27;;;;;;;21.84;44.89;101536.16;4859900;29;20447;-64
2023/06/11 07:54:45;;;;;;;5.13;3.93;;;;;;;22.07;44.20;101535.84;4856369;29;20445;-65
2023/06/11 07:57:14;;;;;;;5.80;5.13;;;;;;;21.94;44.24;101532.69;4858674;29;20864;-65
2023/06/11 07:59:44;;;;;;;11.70;5.07;;;;;;;21.88;44.46;101526.28;4873031;29;20443;-64
2023/06/11 08:02:14;;;;;;;4.30;3.90;;;;;;;22.07;44.30;101530.34;4864480;29;20407;-65
2023/06/11 08:04:43;;;;;;;4.70;4.27;;;;;;;22.27;43.78;101528.84;4857157;29;20785;-65
2023/06/11 08:07:12;;;;;;;4.57;3.83;;;;;;;22.50;43.75;101525.69;4860271;29;20984;-65
2023/06/11 08:09:41;;;;;;;10.53;4.33;;;;;;;22.25;43.41;101525.53;4857148;29;20436;-66
2023/06/11 08:12:12;;;;;;;6.40;4.30;;;;;;;22.11;43.43;101525.16;4867376;29;20494;-65
2023/06/11 08:14:41;;;;;;;5.80;4.93;;;;;;;22.06;43.59;101517.66;4854342;29;20585;-65
2023/06/11 08:17:41;;;;;;;8.00;5.37;;;;;;;22.40;42.46;101528.38;4861563;29;20461;-65
2023/06/11 08:20:10;;;;;;;4.67;4.20;;;;;;;22.29;42.79;101526.66;4857146;29;20422;-65
2023/06/11 08:22:41;;;;;;;5.97;4.17;;;;;;;22.50;42.39;101523.78;4859313;29;20546;-64
2023/06/11 08:25:11;;;;;;;5.97;4.33;;;;;;;22.73;42.25;101522.56;4857093;29;20906;-64
2023/06/11 08:27:41;;;;;;;5.30;4.17;;;;;;;22.98;42.20;101518.25;4858653;29;20467;-65
2023/06/11 08:30:10;;;;;;;4.90;3.93;;;;;;;;;;4850031;29;20809;-65
2023/06/11 08:32:40;;;;;;;8.40;5.50;;;;;;;22.92;41.56;101526.50;4852828;29;20446;-65
2023/06/11 08:35:09;;;;;;;6.53;4.57;;;;;;;22.84;42.04;101523.44;4859881;29;20460;-65
2023/06/11 08:37:38;;;;;;;5.23;4.73;;;;;;;22.99;42.11;101520.75;4860002;29;20440;-65
2023/06/11 08:40:09;;;;;;;4.93;4.50;;;;;;;23.17;41.43;101516.69;4860054;29;20542;-65
2023/06/11 08:42:39;;;;;;;4.97;4.50;;;;;;;23.28;40.55;101515.63;4857492;29;20451;-66
2023/06/11 08:45:10;;;;;;;6.27;4.47;;;;;;;23.17;41.16;101516.69;4863051;29;20414;-66
2023/06/11 08:47:43;;;;;;;6.50;5.40;;;;;;;23.33;41.40;101521.16;4852362;29;20861;-65
2023/06/11 08:50:12;;;;;;;9.53;5.07;;;;;;;23.27;41.40;101508.41;4871323;29;20404;-65
2023/06/11 08:52:43;;;;;;;7.77;5.17;;;;;;;23.69;40.95;101522.06;4863498;29;20559;-65
2023/06/11 08:55:14;;;;;;;8.40;4.93;;;;;;;23.58;41.42;101521.22;4867256;29;20474;-65
2023/06/11 08:57:45;;;;;;;6.40;4.70;;;;;;;24.04;40.75;101513.81;4860527;29;20444;-66
2023/06/11 09:00:17;;;;;;;6.90;5.20;;;;;;;23.86;40.68;101508.84;4866053;29;20475;-65
2023/06/11 09:02:46;;;;;;;6.93;5.33;;;;;;;24.00;40.66;101509.13;4867140;29;20463;-65
2023/06/11 09:05:15;;;;;;;6.30;4.30;;;;;;;23.86;40.62;101513.53;4862382;29;20500;-64
2023/06/11 09:07:50;;;;;;;5.77;4.80;;;;;;;24.09;40.42;101518.50;4863197;29;20606;-65
2023/06/11 09:10:20;;;;;;;5.27;4.73;;;;;;;24.31;40.01;101512.69;4864721;29;20418;-65
2023/06/11 09:12:49;;;;;;;6.77;5.50;;;;;;;24.71;39.63;101509.00;4870879;29;20479;-65
2023/06/11 09:15:20;;;;;;;9.20;6.73;;;;;;;24.76;39.16;101511.78;4859100;29;20441;-66
2023/06/11 09:17:49;;;;;;;6.47;5.77;;;;;;;24.71;38.92;101512.63;4863701;29;20932;-65
2023/06/11 09:20:19;;;;;;;7.20;5.37;;;;;;;24.81;39.04;101508.97;4864471;29;20479;-65
2023/06/11 09:22:51;;;;;;;5.40;4.83;;;;;;;24.73;39.35;101496.56;4858016;29;20495;-65
2023/06/11 09:25:19;;;;;;;6.67;5.97;;;;;;;24.82;39.16;101494.88;4864585;29;20440;-65
2023/06/11 09:27:49;;;;;;;10.53;6.07;;;;;;;24.91;38.29;101498.75;4865649;29;20463;-65
2023/06/11 09:30:20;;;;;;;9.20;5.37;;;;;;;24.69;38.87;101503.75;4861484;29;20543;-65
2023/06/11 09:32:50;;;;;;;6.20;5.70;;;;;;;24.39;39.54;101501.09;4865457;29;20498;-65
2023/06/11 09:35:21;;;;;;;6.53;5.27;;;;;;;24.50;39.06;101495.22;4865354;29;20542;-67
2023/06/11 09:37:52;;;;;;;6.07;5.47;;;;;;;24.65;39.19;101495.19;4866715;29;20469;-64
2023/06/11 09:40:23;;;;;;;6.37;4.90;;;;;;;24.74;38.40;101492.66;4859166;29;20523;-69
2023/06/11 09:42:53;;;;;;;5.87;5.20;;;;;;;24.62;38.28;101503.22;4854256;29;20419;-67
2023/06/11 09:45:24;;;;;;;6.37;5.70;;;;;;;24.53;38.96;101491.91;4854817;29;20446;-65
2023/06/11 09:47:54;;;;;;;7.23;6.63;;;;;;;24.81;38.37;101487.66;4854594;29;20496;-65
2023/06/11 09:50:24;;;;;;;6.80;5.80;;;;;;;25.15;38.12;101487.81;4854616;29;20463;-65
2023/06/11 09:52:53;;;;;;;7.40;5.83;;;;;;;25.34;38.15;101488.00;4852956;29;20527;-65
2023/06/11 09:55:26;;;;;;;11.03;5.70;;;;;;;25.63;37.13;101493.66;4856140;29;20477;-66
2023/06/11 09:57:55;;;;;;;6.43;5.93;;;;;;;25.61;37.36;101490.34;4859680;29;20912;-68
2023/06/11 10:00:25;;;;;;;6.20;5.60;;;;;;;25.52;37.63;101487.31;4864173;29;20773;-69
2023/06/11 10:02:54;;;;;;;6.63;6.00;;;;;;;25.60;37.89;101485.91;4863161;29;20798;-67
2023/06/11 10:05:24;;;;;;;7.50;5.87;;;;;;;25.57;36.86;101492.03;4857782;29;20497;-65
2023/06/11 10:07:59;;;;;;;6.73;6.07;;;;;;;25.78;37.02;101485.22;4861617;29;20444;-66
2023/06/11 10:10:29;;;;;;;6.90;5.97;;;;;;;25.67;37.26;101489.19;4862767;29;20539;-66
2023/06/11 10:12:59;;;;;;;6.27;5.30;;;;;;;25.89;37.38;101484.03;4858565;29;20790;-66
2023/06/11 10:15:33;;;;;;;12.80;6.93;;;;;;;25.88;37.25;101482.38;4857185;29;20467;-66
2023/06/11 10:18:02;;;;;;;7.40;6.60;;;;;;;26.09;36.08;101481.06;4859906;29;20444;-64
2023/06/11 10:20:35;;;;;;;6.17;5.27;;;;;;;26.10;35.98;101477.16;4859144;29;20819;-65
2023/06/11 10:23:06;;;;;;;7.40;6.70;;;;;;;26.11;36.14;101478.81;4859981;29;20853;-65
2023/06/11 10:25:37;;;;;;;7.23;6.53;;;;;;;26.22;35.74;101474.88;4857852;29;20473;-65
2023/06/11 10:28:07;;;;;;;14.50;6.97;;;;;;;26.07;36.65;101469.44;4857437;29;20444;-66
2023/06/11 10:30:37;;;;;;;6.37;5.87;;;;;;;26.06;36.83;101464.16;4850605;29;20467;-66
2023/06/11 10:33:06;;;;;;;7.77;6.97;;;;;;;26.35;36.27;101471.41;4856903;29;20475;-66
2023/06/11 10:35:36;;;;;;;8.30;6.63;;;;;;;26.99;36.25;101472.06;4857487;29;20471;-65
2023/06/11 10:38:07;;;;;;;8.63;7.40;;;;;;;27.17;35.41;101469.31;4858513;29;20448;-65
2023/06/11 10:40:38;;;;;;;8.10;7.40;;;;;;;26.88;35.56;101467.75;4862823;29;20440;-66
2023/06/11 10:43:16;;;;;;;8.93;7.60;;;;;;;26.42;36.21;101461.91;4857651;29;20535;-65
2023/06/11 10:45:47;;;;;;;7.00;6.30;;;;;;;26.10;36.57;101466.06;4855714;29;20464;-65
2023/06/11 10:48:28;;;;;;;6.93;6.33;;;;;;;26.52;35.46;101467.34;4862767;29;20451;-65
2023/06/11 10:51:02;;;;;;;9.20;7.70;;;;;;;26.52;36.46;101472.91;4862666;29;20436;-65
2023/06/11 10:53:39;;;;;;;8.50;7.80;;;;;;;26.67;36.42;101467.16;4858841;29;20563;-66
2023/06/11 10:56:09;;;;;;;8.13;7.43;;;;;;;26.68;37.03;101460.47;4859437;29;20483;-66
2023/06/11 10:58:38;;;;;;;8.77;7.87;;;;;;;26.99;36.88;101472.06;4860060;29;20444;-65
2023/06/11 11:01:09;;;;;;;10.47;9.50;;;;;;;26.71;34.49;101459.91;4857098;29;20819;-66
2023/06/11 11:03:40;;;;;;;7.93;7.17;;;;;;;26.72;34.39;101461.56;4855849;29;20765;-65
2023/06/11 11:06:10;;;;;;;8.47;7.77;;;;;;;26.95;34.13;101462.69;4853727;29;20460;-66
2023/06/11 11:08:40;;;;;;;8.83;8.03;;;;;;;27.36;33.82;101465.69;4865679;29;20432;-65
2023/06/11 11:11:09;;;;;;;8.20;7.50;;;;;;;27.15;33.84;101460.44;4859527;29;20544;-65
2023/06/11 11:13:38;;;;;;;7.67;6.87;;;;;;;27.43;33.75;101458.66;4860006;29;20512;-66
2023/06/11 11:16:09;;;;;;;8.27;7.57;;;;;;;27.16;34.41;101458.47;4858710;29;20460;-66
2023/06/11 11:18:39;;;;;;;7.90;7.10;;;;;;;27.01;33.35;101461.50;4856963;29;20456;-66
2023/06/11 11:21:08;;;;;;;9.03;8.10;;;;;;;26.77;32.76;101458.72;4860085;29;20440;-66
2023/06/11 11:23:37;;;;;;;9.30;8.30;;;;;;;26.50;32.93;101452.91;4858279;29;20886;-65
2023/06/11 11:26:06;;;;;;;8.53;7.73;;;;;;;26.67;32.88;101464.41;4853164;29;20456;-66
2023/06/11 11:28:35;;;;;;;8.53;7.70;;;;;;;27.35;32.16;101453.78;4862578;29;20432;-66
2023/06/11 11:31:05;;;;;;;9.23;8.43;;;;;;;28.04;31.37;101450.13;4857488;29;20811;-65
2023/06/11 11:33:36;;;;;;;8.10;7.20;;;;;;;28.53;31.02;101443.94;4874000;24;20505;-65
2023/06/11 11:36:06;;;;;;;8.57;7.83;;;;;;;28.30;31.73;101446.91;4857132;29;20964;-70
2023/06/11 11:38:36;;;;;;;8.23;7.00;;;;;;;28.08;32.05;101439.19;4856166;29;20468;-71